Time;durP1;ratioP1;P1;durP2;ratioP2;P2;SDS_P1;SDS_P2;PMS_P1;PMS_P2;Temp;Humidity;BMP_temperature;BMP_pressure;BME280_temperature;BME280_humidity;BME280_pressure;Samples;Min_cycle;Max_cycle;Signal;HPM_P1;HPM_P2
2022/11/13 00:01:55;;;;;;;9.77;6.13;;;;;;;;;;10356753;28;20018;-60
2022/11/13 00:06:55;;;;;;;9.48;6.03;;;;;;;;;;10364195;28;20025;-60
2022/11/13 00:11:55;;;;;;;7.45;5.28;;;;;;;;;;10366255;28;20034;-63
2022/11/13 00:16:55;;;;;;;12.30;5.93;;;;;;;;;;10379220;28;20473;-63
2022/11/13 00:21:58;;;;;;;8.27;5.60;;;;;;;;;;10356362;28;20025;-60
2022/11/13 00:26:58;;;;;;;7.43;5.63;;;;;;;;;;10356722;28;20029;-61
2022/11/13 00:31:59;;;;;;;8.20;5.43;;;;;;;;;;10355885;28;20670;-62
2022/11/13 00:36:59;;;;;;;7.47;5.28;;;;;;;;;;10353963;28;20490;-63
2022/11/13 00:41:59;;;;;;;10.07;5.47;;;;;;;;;;10362853;28;20407;-60
2022/11/13 00:46:59;;;;;;;7.80;5.38;;;;;;;;;;10360467;28;20389;-63
2022/11/13 00:52:01;;;;;;;8.23;5.60;;;;;;;;;;10339470;28;20033;-62
2022/11/13 00:57:02;;;;;;;9.43;5.65;;;;;;;;;;10358041;28;20042;-63
2022/11/13 01:02:02;;;;;;;7.95;6.00;;;;;;;;;;10330381;28;20042;-61
2022/11/13 01:07:02;;;;;;;7.85;5.28;;;;;;;;;;10335183;28;20688;-63
2022/11/13 01:12:02;;;;;;;8.23;5.20;;;;;;;;;;10334524;28;20037;-63
2022/11/13 01:17:03;;;;;;;9.37;4.77;;;;;;;;;;10332957;28;20029;-60
2022/11/13 01:22:03;;;;;;;8.50;5.03;;;;;;;;;;10330679;28;20836;-63
2022/11/13 01:27:04;;;;;;;7.05;5.22;;;;;;;;;;10348958;28;20528;-63
2022/11/13 01:32:04;;;;;;;12.10;5.07;;;;;;;;;;10337155;28;20030;-61
2022/11/13 01:37:04;;;;;;;7.87;5.30;;;;;;;;;;10329960;28;20108;-63
2022/11/13 01:42:05;;;;;;;8.67;4.63;;;;;;;;;;10339129;28;20162;-64
2022/11/13 01:47:05;;;;;;;7.72;4.60;;;;;;;;;;10362066;28;20463;-63
2022/11/13 01:52:10;;;;;;;5.97;4.50;;;;;;;;;;10363935;28;20105;-62
2022/11/13 01:57:10;;;;;;;7.20;4.50;;;;;;;;;;10368095;28;20563;-63
2022/11/13 02:02:11;;;;;;;5.88;4.32;;;;;;;;;;10364030;28;20026;-60
2022/11/13 02:07:15;;;;;;;7.70;5.00;;;;;;;;;;10367168;28;20034;-60
2022/11/13 02:12:18;;;;;;;6.53;4.38;;;;;;;;;;10365700;28;20442;-63
2022/11/13 02:17:32;;;;;;;7.90;4.75;;;;;;;;;;10371574;28;20096;-63
2022/11/13 02:22:41;;;;;;;7.57;4.70;;;;;;;;;;10370527;28;20029;-60
2022/11/13 02:27:41;;;;;;;;;;;;;;;;;;10370070;28;20061;-61
2022/11/13 02:32:46;;;;;;;6.63;4.43;;;;;;;;;;10383641;28;20337;-61
2022/11/13 02:37:46;;;;;;;8.10;4.90;;;;;;;;;;10369893;28;20505;-60
2022/11/13 02:42:46;;;;;;;6.32;4.28;;;;;;;;;;10369618;28;20076;-61
2022/11/13 02:47:47;;;;;;;5.82;4.38;;;;;;;;;;10368242;28;20038;-62
2022/11/13 02:52:47;;;;;;;5.35;4.32;;;;;;;;;;10368886;28;20370;-63
2022/11/13 02:57:47;;;;;;;9.38;4.40;;;;;;;;;;10368402;28;20036;-63
2022/11/13 03:02:47;;;;;;;8.57;4.38;;;;;;;;;;10367334;28;20089;-56
2022/11/13 03:07:48;;;;;;;4.45;3.67;;;;;;;;;;10369490;28;20037;-64
2022/11/13 03:12:48;;;;;;;4.13;3.58;;;;;;;;;;10368983;28;20076;-61
2022/11/13 03:17:48;;;;;;;6.40;4.18;;;;;;;;;;10369249;28;20041;-62
2022/11/13 03:22:49;;;;;;;7.93;4.40;;;;;;;;;;10367393;28;20070;-63
2022/11/13 03:27:49;;;;;;;5.03;3.95;;;;;;;;;;10367113;28;20044;-48
2022/11/13 03:32:56;;;;;;;7.88;3.90;;;;;;;;;;10377639;22;20130;-65
2022/11/13 03:37:56;;;;;;;9.80;4.25;;;;;;;;;;10347512;28;20030;-65
2022/11/13 03:42:56;;;;;;;8.52;4.10;;;;;;;;;;10357946;28;20421;-63
2022/11/13 03:47:56;;;;;;;7.30;3.70;;;;;;;;;;10348709;28;20430;-64
2022/11/13 03:52:57;;;;;;;5.85;4.13;;;;;;;;;;10352975;28;20393;-66
2022/11/13 03:57:57;;;;;;;3.63;3.33;;;;;;;;;;10351910;28;20474;-67
2022/11/13 04:03:00;;;;;;;3.97;3.55;;;;;;;;;;10366950;28;20412;-66
2022/11/13 04:08:00;;;;;;;6.53;3.47;;;;;;;;;;10343719;28;20034;-66
2022/11/13 04:13:00;;;;;;;7.13;3.60;;;;;;;;;;10340168;28;20105;-62
2022/11/13 04:18:01;;;;;;;5.00;3.55;;;;;;;;;;10352934;28;20038;-66
2022/11/13 04:23:06;;;;;;;6.00;3.40;;;;;;;;;;10340084;28;20028;-61
2022/11/13 04:28:07;;;;;;;7.03;3.53;;;;;;;;;;10361707;28;20022;-66
2022/11/13 04:33:07;;;;;;;4.28;3.53;;;;;;;;;;10355932;28;20046;-61
2022/11/13 04:38:08;;;;;;;3.90;3.50;;;;;;;;;;10351731;28;20026;-62
2022/11/13 04:43:08;;;;;;;6.90;3.90;;;;;;;;;;10362690;28;20038;-65
2022/11/13 04:48:08;;;;;;;5.00;3.92;;;;;;;;;;10355749;28;20044;-62
2022/11/13 04:53:08;;;;;;;4.07;3.20;;;;;;;;;;10360994;28;20484;-64
2022/11/13 04:58:09;;;;;;;4.40;3.65;;;;;;;;;;10357013;28;20042;-65
2022/11/13 05:03:09;;;;;;;5.60;3.28;;;;;;;;;;10364446;28;20037;-63
2022/11/13 05:08:09;;;;;;;4.47;2.95;;;;;;;;;;10363618;28;20026;-66
2022/11/13 05:13:09;;;;;;;4.80;3.83;;;;;;;;;;10362496;28;20044;-58
2022/11/13 05:18:10;;;;;;;4.72;3.55;;;;;;;;;;10353114;28;20034;-60
2022/11/13 05:23:10;;;;;;;4.50;3.22;;;;;;;;;;10350374;28;20059;-60
2022/11/13 05:28:10;;;;;;;4.05;2.95;;;;;;;;;;10364144;28;20038;-65
2022/11/13 05:33:10;;;;;;;4.28;3.15;;;;;;;;;;10351860;28;20386;-61
2022/11/13 05:38:11;;;;;;;4.30;3.42;;;;;;;;;;10359429;28;20026;-63
2022/11/13 05:43:11;;;;;;;8.75;3.38;;;;;;;;;;10352641;28;20033;-65
2022/11/13 05:48:11;;;;;;;6.60;3.42;;;;;;;;;;10356437;28;20030;-60
2022/11/13 05:53:11;;;;;;;6.05;3.40;;;;;;;;;;10364362;28;20030;-66
2022/11/13 05:58:12;;;;;;;3.65;2.97;;;;;;;;;;10350303;28;20037;-66
2022/11/13 06:03:12;;;;;;;4.17;3.57;;;;;;;;;;10370581;28;20104;-60
2022/11/13 06:08:12;;;;;;;5.43;3.03;;;;;;;;;;10370845;28;20030;-63
2022/11/13 06:13:13;;;;;;;3.25;2.67;;;;;;;;;;10356628;28;20044;-65
2022/11/13 06:18:13;;;;;;;3.30;2.67;;;;;;;;;;10370307;28;20025;-59
2022/11/13 06:23:13;;;;;;;3.33;2.77;;;;;;;;;;10357846;28;20527;-60
2022/11/13 06:28:14;;;;;;;4.70;2.70;;;;;;;;;;10369590;28;20562;-67
2022/11/13 06:33:14;;;;;;;6.13;3.30;;;;;;;;;;10356946;28;20398;-64
2022/11/13 06:38:14;;;;;;;3.38;2.70;;;;;;;;;;10364961;28;20030;-65
2022/11/13 06:43:14;;;;;;;3.20;2.90;;;;;;;;;;10346683;28;20044;-67
2022/11/13 06:48:15;;;;;;;3.25;2.45;;;;;;;;;;10356703;28;20029;-67
2022/11/13 06:53:15;;;;;;;5.05;3.17;;;;;;;;;;10362939;28;20025;-66
2022/11/13 06:58:16;;;;;;;4.32;2.90;;;;;;;;;;10359753;28;20041;-61
2022/11/13 07:03:20;;;;;;;4.50;3.03;;;;;;;;;;10355489;28;20030;-61
2022/11/13 07:08:21;;;;;;;3.90;3.00;;;;;;;;;;10349162;28;20429;-68
2022/11/13 07:13:22;;;;;;;3.23;2.50;;;;;;;;;;10361208;28;20030;-68
2022/11/13 07:18:22;;;;;;;4.95;2.70;;;;;;;;;;10354068;28;20863;-64
2022/11/13 07:23:22;;;;;;;4.18;2.70;;;;;;;;;;10349817;28;20022;-55
2022/11/13 07:28:22;;;;;;;4.03;2.77;;;;;;;;;;10346734;28;20022;-64
2022/11/13 07:33:23;;;;;;;4.78;3.25;;;;;;;;;;10331743;28;20041;-68
2022/11/13 07:38:23;;;;;;;7.30;3.27;;;;;;;;;;10368410;28;20516;-62
2022/11/13 07:43:23;;;;;;;6.97;2.90;;;;;;;;;;10367017;28;20469;-69
2022/11/13 07:48:25;;;;;;;5.07;3.03;;;;;;;;;;10366997;28;20478;-63
2022/11/13 07:53:25;;;;;;;5.68;3.00;;;;;;;;;;10347069;28;20038;-66
2022/11/13 07:58:26;;;;;;;4.87;3.20;;;;;;;;;;10349881;28;20029;-65
2022/11/13 08:03:26;;;;;;;4.00;2.88;;;;;;;;;;10349232;28;20044;-68
2022/11/13 08:08:26;;;;;;;6.03;2.72;;;;;;;;;;10359564;28;20033;-64
2022/11/13 08:13:26;;;;;;;4.07;2.97;;;;;;;;;;10358833;28;20034;-66
2022/11/13 08:18:28;;;;;;;5.00;2.80;;;;;;;;;;10355176;28;20483;-65
2022/11/13 08:23:28;;;;;;;23.40;3.33;;;;;;;;;;10351069;28;20022;-70
2022/11/13 08:28:28;;;;;;;5.13;3.07;;;;;;;;;;10348216;28;20377;-68
2022/11/13 08:33:29;;;;;;;8.73;2.60;;;;;;;;;;10361231;28;20474;-64
2022/11/13 08:38:29;;;;;;;16.35;2.75;;;;;;;;;;10355762;28;20470;-69
2022/11/13 08:43:30;;;;;;;6.63;2.70;;;;;;;;;;10363715;28;20030;-67
2022/11/13 08:48:30;;;;;;;6.00;3.13;;;;;;;;;;10364381;28;20641;-69
2022/11/13 08:53:30;;;;;;;3.58;2.60;;;;;;;;;;10360911;28;20061;-70
2022/11/13 08:58:30;;;;;;;5.68;2.58;;;;;;;;;;10361470;28;20026;-60
2022/11/13 09:03:31;;;;;;;4.70;2.60;;;;;;;;;;10363877;28;20037;-67
2022/11/13 09:08:31;;;;;;;6.57;2.95;;;;;;;;;;10361763;28;20026;-64
2022/11/13 09:13:32;;;;;;;6.00;2.85;;;;;;;;;;10364317;28;20030;-67
2022/11/13 09:18:32;;;;;;;4.78;2.88;;;;;;;;;;10363431;28;20026;-69
2022/11/13 09:23:34;;;;;;;3.88;2.40;;;;;;;;;;10368864;28;20141;-66
2022/11/13 09:28:34;;;;;;;7.78;2.70;;;;;;;;;;10371795;28;20100;-69
2022/11/13 09:33:35;;;;;;;4.27;2.83;;;;;;;;;;10369532;28;20107;-69
2022/11/13 09:38:35;;;;;;;6.07;2.70;;;;;;;;;;10369208;28;20371;-69
2022/11/13 09:43:54;;;;;;;3.00;2.50;;;;;;;;;;10367084;28;20378;-69
2022/11/13 09:48:56;;;;;;;5.80;2.60;;;;;;;;;;10356427;28;20030;-64
2022/11/13 09:53:56;;;;;;;5.30;2.50;;;;;;;;;;10361669;28;20121;-67
2022/11/13 09:59:00;;;;;;;6.53;2.45;;;;;;;;;;10348201;28;20034;-68
2022/11/13 10:04:02;;;;;;;5.28;2.22;;;;;;;;;;10357400;28;20022;-62
2022/11/13 10:09:14;;;;;;;5.10;2.88;;;;;;;;;;10359410;28;20034;-61
2022/11/13 10:14:17;;;;;;;5.03;2.40;;;;;;;;;;10370988;28;20493;-65
2022/11/13 10:19:22;;;;;;;8.00;2.80;;;;;;;;;;10359168;28;20033;-68
2022/11/13 10:24:26;;;;;;;3.25;2.55;;;;;;;;;;10359959;28;20025;-65
2022/11/13 10:29:27;;;;;;;3.85;2.65;;;;;;;;;;10349087;28;20119;-64
2022/11/13 10:34:28;;;;;;;5.47;3.03;;;;;;;;;;10359376;28;20155;-68
2022/11/13 10:39:28;;;;;;;2.70;2.30;;;;;;;;;;10365333;28;20034;-64
2022/11/13 10:44:31;;;;;;;4.90;2.70;;;;;;;;;;10370918;28;20025;-65
2022/11/13 10:49:32;;;;;;;3.55;2.33;;;;;;;;;;10355558;28;20033;-68
2022/11/13 10:54:32;;;;;;;5.55;2.45;;;;;;;;;;10357339;28;20382;-69
2022/11/13 10:59:40;;;;;;;4.82;2.60;;;;;;;;;;10351066;28;20117;-64
2022/11/13 11:04:40;;;;;;;2.60;2.40;;;;;;;;;;10342383;28;20071;-65
2022/11/13 11:09:42;;;;;;;3.15;2.47;;;;;;;;;;10368257;28;20018;-69
2022/11/13 11:14:53;;;;;;;5.47;2.70;;;;;;;;;;10368327;28;20032;-67
2022/11/13 11:19:58;;;;;;;5.38;2.45;;;;;;;;;;10368362;28;20342;-63
2022/11/13 11:25:11;;;;;;;5.72;2.80;;;;;;;;;;10367905;28;20030;-68
2022/11/13 11:30:27;;;;;;;3.05;2.42;;;;;;;;;;10349244;28;20497;-66
2022/11/13 11:35:48;;;;;;;2.65;2.40;;;;;;;;;;10353872;28;20034;-66
2022/11/13 11:40:51;;;;;;;3.65;2.50;;;;;;;;;;10344229;28;20445;-68
2022/11/13 11:45:52;;;;;;;4.57;2.83;;;;;;;;;;10363707;28;20477;-67
2022/11/13 11:50:59;;;;;;;6.28;2.83;;;;;;;;;;10361213;28;20031;-65
2022/11/13 11:56:05;;;;;;;4.50;2.85;;;;;;;;;;10359194;28;20189;-68
2022/11/13 12:01:34;;;;;;;3.35;2.60;;;;;;;;;;10361669;28;20060;-61
2022/11/13 12:06:48;;;;;;;3.90;2.80;;;;;;;;;;10272196;28;20042;-67
2022/11/13 12:11:54;;;;;;;3.08;2.78;;;;;;;;;;10356473;28;20042;-68
2022/11/13 12:17:03;;;;;;;5.50;2.90;;;;;;;;;;10360753;28;20025;-68
2022/11/13 12:22:05;;;;;;;5.72;2.60;;;;;;;;;;10360283;28;20034;-67
2022/11/13 12:27:16;;;;;;;3.22;2.92;;;;;;;;;;10358476;28;20209;-71
2022/11/13 12:32:28;;;;;;;2.85;2.58;;;;;;;;;;10351075;28;20046;-70
2022/11/13 12:37:31;;;;;;;5.85;3.08;;;;;;;;;;10343525;28;20065;-70
2022/11/13 12:42:55;;;;;;;5.40;3.10;;;;;;;;;;10363613;28;20145;-67
2022/11/13 12:48:06;;;;;;;5.90;3.13;;;;;;;;;;10359247;28;20068;-67
2022/11/13 12:53:10;;;;;;;6.15;3.38;;;;;;;;;;10353846;28;20079;-67
2022/11/13 12:58:25;;;;;;;8.32;2.90;;;;;;;;;;10355699;28;20064;-67
2022/11/13 13:03:34;;;;;;;6.93;3.40;;;;;;;;;;10363436;28;20087;-66
2022/11/13 13:08:40;;;;;;;5.72;3.30;;;;;;;;;;10361629;28;20026;-65
2022/11/13 13:13:49;;;;;;;5.53;3.10;;;;;;;;;;10362577;28;20037;-69
2022/11/13 13:18:50;;;;;;;3.40;2.88;;;;;;;;;;10360345;28;20034;-66
2022/11/13 13:23:52;;;;;;;4.85;3.28;;;;;;;;;;10360762;28;20030;-64
2022/11/13 13:28:53;;;;;;;5.85;3.35;;;;;;;;;;10363061;28;20050;-68
2022/11/13 13:33:53;;;;;;;5.40;3.90;;;;;;;;;;10359136;28;20038;-62
2022/11/13 13:39:04;;;;;;;4.35;2.95;;;;;;;;;;10360264;28;20040;-70
2022/11/13 13:44:37;;;;;;;7.45;3.03;;;;;;;;;;10357496;28;20535;-69
2022/11/13 13:49:37;;;;;;;4.65;3.10;;;;;;;;;;10308508;28;20048;-69
2022/11/13 13:54:39;;;;;;;8.80;3.57;;;;;;;;;;10359547;28;20032;-64
2022/11/13 13:59:40;;;;;;;5.70;3.70;;;;;;;;;;10350413;28;20183;-69
2022/11/13 14:04:48;;;;;;;6.10;3.35;;;;;;;;;;10354956;28;20037;-68
2022/11/13 14:09:48;;;;;;;5.13;3.30;;;;;;;;;;10362157;28;20037;-65
2022/11/13 14:14:49;;;;;;;6.00;3.50;;;;;;;;;;10364115;28;20498;-68
2022/11/13 14:19:52;;;;;;;4.23;3.27;;;;;;;;;;10368890;28;20581;-68
2022/11/13 14:24:54;;;;;;;5.40;2.90;;;;;;;;;;10359300;28;20042;-69
2022/11/13 14:29:56;;;;;;;4.07;3.10;;;;;;;;;;10365165;28;20038;-68
2022/11/13 14:34:58;;;;;;;6.75;3.20;;;;;;;;;;10361336;28;20108;-68
2022/11/13 14:40:04;;;;;;;6.43;3.35;;;;;;;;;;10357720;28;20128;-65
2022/11/13 14:45:15;;;;;;;4.03;3.10;;;;;;;;;;10365060;28;20037;-68
2022/11/13 14:50:18;;;;;;;8.15;3.30;;;;;;;;;;10361132;28;20026;-68
2022/11/13 14:55:20;;;;;;;8.80;3.50;;;;;;;;;;10358148;28;20038;-70
2022/11/13 15:00:27;;;;;;;9.48;3.75;;;;;;;;;;10356034;28;20057;-68
2022/11/13 15:05:27;;;;;;;6.93;3.38;;;;;;;;;;10355881;28;20061;-64
2022/11/13 15:10:28;;;;;;;11.73;4.10;;;;;;;;;;10357056;28;20108;-72
2022/11/13 15:15:31;;;;;;;14.90;4.70;;;;;;;;;;10363854;28;20536;-72
2022/11/13 15:20:32;;;;;;;15.05;4.60;;;;;;;;;;10364036;28;20070;-67
2022/11/13 15:25:32;;;;;;;7.10;3.58;;;;;;;;;;10365592;28;20541;-73
2022/11/13 15:30:32;;;;;;;18.07;4.27;;;;;;;;;;10355980;28;20541;-55
2022/11/13 15:35:32;;;;;;;12.98;4.20;;;;;;;;;;10344907;28;20367;-49
2022/11/13 15:40:33;;;;;;;13.23;3.83;;;;;;;;;;10302391;28;20049;-66
2022/11/13 15:48:33;;;;;;;6.18;3.80;;;;;;;;;;10435742;28;20644;-59
2022/11/13 15:53:34;;;;;;;10.27;4.32;;;;;;;;;;10396065;28;20489;-59
2022/11/13 15:58:34;;;;;;;7.38;4.00;;;;;;;;;;10398060;28;20030;-59
2022/11/13 16:03:38;;;;;;;6.88;3.40;;;;;;;;;;10392488;28;20038;-59
2022/11/13 16:08:39;;;;;;;6.88;3.70;;;;;;;;;;10388340;28;20054;-58
2022/11/13 16:13:40;;;;;;;5.70;3.58;;;;;;;;;;10392554;28;20038;-59
2022/11/13 16:18:40;;;;;;;7.07;3.47;;;;;;;;;;10391896;28;20092;-59
2022/11/13 16:23:42;;;;;;;5.78;3.63;;;;;;;;;;10394229;28;20026;-59
2022/11/13 16:28:43;;;;;;;14.48;3.60;;;;;;;;;;10390210;28;20381;-59
2022/11/13 16:33:44;;;;;;;10.55;3.30;;;;;;;;;;10398918;28;20025;-59
2022/11/13 16:38:45;;;;;;;6.32;3.25;;;;;;;;;;10385584;28;20034;-59
2022/11/13 16:43:45;;;;;;;4.78;3.25;;;;;;;;;;10392058;28;20033;-59
2022/11/13 16:48:48;;;;;;;8.07;3.35;;;;;;;;;;10388042;28;20485;-59
2022/11/13 16:53:49;;;;;;;6.53;3.05;;;;;;;;;;10386506;28;20037;-58
2022/11/13 16:58:50;;;;;;;7.32;3.63;;;;;;;;;;10365027;28;20393;-59
2022/11/13 17:03:51;;;;;;;6.72;3.33;;;;;;;;;;10363198;28;20030;-59
2022/11/13 17:08:54;;;;;;;7.40;3.80;;;;;;;;;;10368713;28;20025;-59
2022/11/13 17:13:57;;;;;;;7.55;4.18;;;;;;;;;;10365418;28;20220;-59
2022/11/13 17:18:59;;;;;;;11.90;4.00;;;;;;;;;;10353163;28;20490;-59
2022/11/13 17:24:01;;;;;;;9.20;3.88;;;;;;;;;;10364429;28;20231;-59
2022/11/13 17:29:04;;;;;;;5.05;3.75;;;;;;;;;;10339975;28;20390;-59
2022/11/13 17:34:05;;;;;;;5.47;3.88;;;;;;;;;;10365100;28;20369;-59
2022/11/13 17:39:05;;;;;;;5.53;3.53;;;;;;;;;;10365499;28;20038;-59
2022/11/13 17:44:06;;;;;;;5.85;3.55;;;;;;;;;;10367118;28;20058;-59
2022/11/13 17:49:06;;;;;;;6.05;3.83;;;;;;;;;;10350733;28;20034;-59
2022/11/13 17:54:07;;;;;;;5.55;3.85;;;;;;;;;;10355937;28;20035;-58
2022/11/13 17:59:09;;;;;;;7.85;3.97;;;;;;;;;;10349706;28;20058;-59
2022/11/13 18:04:10;;;;;;;8.10;3.75;;;;;;;;;;10355873;28;20037;-59
2022/11/13 18:09:11;;;;;;;5.70;3.90;;;;;;;;;;10364460;28;20033;-59
2022/11/13 18:14:11;;;;;;;4.68;4.05;;;;;;;;;;10374420;28;20040;-59
2022/11/13 18:19:12;;;;;;;11.27;3.85;;;;;;;;;;10371229;28;20029;-61
2022/11/13 18:24:16;;;;;;;12.02;4.00;;;;;;;;;;10365241;28;20535;-60
2022/11/13 18:29:17;;;;;;;7.20;3.53;;;;;;;;;;10358295;28;20088;-60
2022/11/13 18:34:17;;;;;;;5.90;3.80;;;;;;;;;;10373904;28;20034;-59
2022/11/13 18:39:18;;;;;;;6.30;3.88;;;;;;;;;;10368678;28;20057;-60
2022/11/13 18:44:18;;;;;;;10.88;4.53;;;;;;;;;;10366684;28;20477;-60
2022/11/13 18:49:19;;;;;;;6.05;3.85;;;;;;;;;;10371120;28;20162;-60
2022/11/13 18:54:20;;;;;;;6.10;3.60;;;;;;;;;;10367070;28;20033;-60
2022/11/13 18:59:20;;;;;;;4.78;3.58;;;;;;;;;;10365163;28;20831;-60
2022/11/13 19:04:21;;;;;;;6.63;4.10;;;;;;;;;;10366547;28;20034;-58
2022/11/13 19:09:22;;;;;;;6.35;4.10;;;;;;;;;;10365518;28;20022;-60
2022/11/13 19:14:22;;;;;;;5.53;3.63;;;;;;;;;;10376469;28;20068;-58
2022/11/13 19:19:23;;;;;;;5.30;4.20;;;;;;;;;;10354943;28;20500;-60
2022/11/13 19:24:24;;;;;;;6.72;3.70;;;;;;;;;;10363409;28;20029;-59
2022/11/13 19:29:24;;;;;;;7.43;4.22;;;;;;;;;;10370011;28;20115;-59
2022/11/13 19:34:25;;;;;;;6.03;4.13;;;;;;;;;;10357460;28;20034;-58
2022/11/13 19:39:26;;;;;;;6.43;4.15;;;;;;;;;;10356740;28;20034;-58
2022/11/13 19:44:26;;;;;;;8.38;4.22;;;;;;;;;;10354837;28;20057;-58
2022/11/13 19:49:27;;;;;;;9.18;4.32;;;;;;;;;;10357394;28;20096;-58
2022/11/13 19:54:28;;;;;;;7.78;4.28;;;;;;;;;;10361551;28;20389;-58
2022/11/13 19:59:28;;;;;;;9.68;4.35;;;;;;;;;;10360394;28;20346;-58
2022/11/13 20:04:29;;;;;;;6.80;4.47;;;;;;;;;;10356846;28;20026;-57
2022/11/13 20:09:29;;;;;;;7.80;4.43;;;;;;;;;;10350438;28;20038;-57
2022/11/13 20:14:30;;;;;;;7.47;4.85;;;;;;;;;;10355672;28;20037;-57
2022/11/13 20:19:30;;;;;;;8.18;4.78;;;;;;;;;;10356890;28;20458;-57
2022/11/13 20:24:31;;;;;;;10.25;4.57;;;;;;;;;;10363147;28;20021;-57
2022/11/13 20:29:32;;;;;;;13.02;4.78;;;;;;;;;;10361071;28;20030;-58
2022/11/13 20:34:32;;;;;;;5.40;4.53;;;;;;;;;;10363445;28;20080;-59
2022/11/13 20:39:33;;;;;;;5.07;4.20;;;;;;;;;;10368788;28;20029;-58
2022/11/13 20:44:33;;;;;;;8.27;4.63;;;;;;;;;;10351600;28;20053;-58
2022/11/13 20:49:34;;;;;;;8.65;5.00;;;;;;;;;;10356574;28;20028;-58
2022/11/13 20:54:35;;;;;;;8.10;4.78;;;;;;;;;;10370968;28;20030;-58
2022/11/13 20:59:35;;;;;;;6.35;4.78;;;;;;;;;;10366178;28;20030;-59
2022/11/13 21:04:36;;;;;;;12.45;5.15;;;;;;;;;;10360760;28;20033;-58
2022/11/13 21:09:36;;;;;;;6.57;4.80;;;;;;;;;;10364829;28;20536;-58
2022/11/13 21:14:37;;;;;;;6.78;4.70;;;;;;;;;;10366465;28;20363;-58
2022/11/13 21:19:38;;;;;;;7.35;4.70;;;;;;;;;;10359338;28;21414;-60
2022/11/13 21:24:39;;;;;;;12.52;5.10;;;;;;;;;;10362939;28;20497;-58
2022/11/13 21:29:39;;;;;;;7.05;5.05;;;;;;;;;;10367199;28;20100;-58
2022/11/13 21:34:40;;;;;;;5.90;4.45;;;;;;;;;;10364084;28;20037;-58
2022/11/13 21:39:40;;;;;;;8.52;4.55;;;;;;;;;;10356982;28;20087;-59
2022/11/13 21:44:41;;;;;;;5.25;4.22;;;;;;;;;;10360777;28;20193;-59
2022/11/13 21:49:42;;;;;;;5.68;4.60;;;;;;;;;;10363934;28;20482;-58
2022/11/13 21:54:43;;;;;;;4.55;4.15;;;;;;;;;;10364033;28;20044;-58
2022/11/13 21:59:44;;;;;;;9.10;4.80;;;;;;;;;;10353369;28;20306;-58
2022/11/13 22:04:44;;;;;;;5.75;4.40;;;;;;;;;;10360252;28;20734;-58
2022/11/13 22:09:45;;;;;;;10.20;4.57;;;;;;;;;;10356690;28;20188;-59
2022/11/13 22:14:45;;;;;;;16.65;4.85;;;;;;;;;;10366170;28;20084;-59
2022/11/13 22:19:46;;;;;;;19.45;4.53;;;;;;;;;;10376328;28;20041;-58
2022/11/13 22:24:46;;;;;;;16.95;5.85;;;;;;;;;;10365839;28;20042;-60
2022/11/13 22:29:47;;;;;;;17.77;4.70;;;;;;;;;;10340741;28;20030;-60
2022/11/13 22:34:47;;;;;;;9.48;4.60;;;;;;;;;;10325098;28;20088;-60
2022/11/13 22:39:48;;;;;;;20.90;4.50;;;;;;;;;;10320135;28;20037;-60
2022/11/13 22:44:49;;;;;;;11.07;4.45;;;;;;;;;;10334510;28;20038;-60
2022/11/13 22:49:49;;;;;;;8.77;5.07;;;;;;;;;;10328152;28;20205;-60
2022/11/13 22:54:50;;;;;;;6.28;4.00;;;;;;;;;;10322159;28;20238;-59
2022/11/13 22:59:50;;;;;;;5.22;4.45;;;;;;;;;;10337615;28;20038;-59
2022/11/13 23:04:51;;;;;;;6.35;4.50;;;;;;;;;;10367545;28;20061;-59
2022/11/13 23:09:51;;;;;;;7.68;4.30;;;;;;;;;;10367379;28;20029;-60
2022/11/13 23:14:52;;;;;;;6.85;4.90;;;;;;;;;;10365829;28;20030;-59
2022/11/13 23:19:53;;;;;;;9.00;4.40;;;;;;;;;;10366568;28;20083;-59
2022/11/13 23:24:55;;;;;;;4.80;4.00;;;;;;;;;;10366677;28;20088;-58
2022/11/13 23:29:55;;;;;;;6.78;4.45;;;;;;;;;;10364906;28;20508;-59
2022/11/13 23:34:56;;;;;;;20.35;4.78;;;;;;;;;;10364888;28;20038;-60
2022/11/13 23:39:56;;;;;;;4.43;3.97;;;;;;;;;;10366313;28;20041;-60
2022/11/13 23:44:57;;;;;;;5.88;4.18;;;;;;;;;;10366436;28;20421;-58
2022/11/13 23:49:57;;;;;;;5.72;4.35;;;;;;;;;;10364622;28;20433;-59
2022/11/13 23:54:58;;;;;;;5.15;4.25;;;;;;;;;;10365857;28;20405;-58
2022/11/13 23:59:59;;;;;;;5.47;4.18;;;;;;;;;;10365373;28;20425;-58
